Time;durP1;ratioP1;P1;durP2;ratioP2;P2;SDS_P1;SDS_P2;PMS_P1;PMS_P2;Temp;Humidity;BMP_temperature;BMP_pressure;BME280_temperature;BME280_humidity;BME280_pressure;Samples;Min_cycle;Max_cycle;Signal;HPM_P1;HPM_P2
2022/11/22 00:00:59;;;;;;;;;2.00;2.00;;;;;6.84;70.05;99235.38;6188403;23;45267;-87
2022/11/22 00:03:25;;;;;;;;;1.00;1.00;;;;;6.86;70.51;99241.47;6186885;23;47073;-89
2022/11/22 00:05:52;;;;;;;;;1.50;1.00;;;;;6.76;70.27;99225.06;6160749;23;45329;-86
2022/11/22 00:08:20;;;;;;;;;1.50;1.25;;;;;6.76;70.21;99235.50;6187353;23;45371;-86
2022/11/22 00:10:48;;;;;;;;;1.50;1.00;;;;;6.77;70.38;99236.38;6160082;23;45203;-85
2022/11/22 00:13:14;;;;;;;;;2.00;2.00;;;;;6.77;70.64;99239.84;6160525;23;46191;-87
2022/11/22 00:15:52;;;;;;;;;1.00;1.00;;;;;6.76;70.55;99245.97;6161342;23;45341;-87
2022/11/22 00:18:19;;;;;;;;;2.50;1.50;;;;;6.63;70.63;99216.50;6189000;23;45308;-86
2022/11/22 00:20:47;;;;;;;;;1.25;1.00;;;;;6.69;70.43;99223.38;6161669;23;45282;-93
2022/11/22 00:23:29;;;;;;;;;4.00;3.00;;;;;6.71;70.86;99224.25;6169036;23;46988;-95
2022/11/22 00:25:54;;;;;;;;;2.75;1.00;;;;;6.69;70.61;99217.31;6192024;23;45273;-88
2022/11/22 00:28:19;;;;;;;;;1.75;1.00;;;;;6.61;70.68;99207.78;6190327;23;45307;-85
2022/11/22 00:30:45;;;;;;;;;3.75;2.75;;;;;6.62;70.84;99203.41;6190807;23;45272;-86
2022/11/22 00:33:10;;;;;;;;;3.00;2.00;;;;;6.73;70.59;99230.28;6163137;23;46926;-86
2022/11/22 00:35:36;;;;;;;;;1.75;1.75;;;;;6.72;70.80;99220.72;6187701;23;45274;-86
2022/11/22 00:38:02;;;;;;;;;2.00;1.00;;;;;6.68;70.71;99215.56;6161700;23;45472;-87
2022/11/22 00:40:32;;;;;;;;;4.00;1.00;;;;;6.65;70.75;99205.13;6188056;23;45203;-87
2022/11/22 00:42:57;;;;;;;;;1.00;1.00;;;;;6.69;70.73;99212.94;6162181;23;48936;-86
2022/11/22 00:45:22;;;;;;;;;1.00;1.00;;;;;6.59;70.73;99199.09;6190715;23;45205;-86
2022/11/22 00:47:50;;;;;;;;;0.50;0.50;;;;;6.69;70.66;99204.22;6163167;23;45164;-86
2022/11/22 00:50:19;;;;;;;;;2.00;2.00;;;;;6.69;70.61;99206.84;6190545;23;45138;-87
2022/11/22 00:52:44;;;;;;;;;2.50;2.00;;;;;6.72;70.69;99215.50;6189934;23;46439;-86
2022/11/22 00:55:09;;;;;;;;;2.25;0.00;;;;;6.78;70.71;99215.41;6190247;23;45354;-86
2022/11/22 00:57:37;;;;;;;;;5.50;3.00;;;;;6.76;70.46;99198.00;6163928;23;45329;-87
2022/11/22 01:00:05;;;;;;;;;2.50;1.50;;;;;6.83;70.76;99212.75;6190843;23;45183;-86
2022/11/22 01:02:30;;;;;;;;;2.25;1.00;;;;;6.78;70.35;99211.94;6187536;23;46537;-86
2022/11/22 01:04:56;;;;;;;;;2.00;2.00;;;;;6.83;70.50;99217.97;6189735;23;45144;-86
2022/11/22 01:07:21;;;;;;;;;9.50;2.00;;;;;6.82;70.39;99211.03;6190019;23;45534;-86
2022/11/22 01:09:46;;;;;;;;;2.75;2.00;;;;;6.92;70.22;99222.22;6190291;23;45357;-86
2022/11/22 01:12:12;;;;;;;;;1.25;0.75;;;;;6.85;70.39;99198.75;6189596;23;45406;-87
2022/11/22 01:14:37;;;;;;;;;0.25;0.25;;;;;6.87;70.70;99204.00;6163472;23;45253;-86
2022/11/22 01:17:05;;;;;;;;;0.25;0.00;;;;;6.89;70.13;99193.47;6164656;23;45352;-85
2022/11/22 01:19:35;;;;;;;;;2.75;1.00;;;;;6.92;70.07;99204.75;6162131;23;45579;-87
2022/11/22 01:22:00;;;;;;;;;2.00;2.00;;;;;7.04;69.84;99217.69;6162194;23;47230;-87
2022/11/22 01:24:28;;;;;;;;;1.00;1.00;;;;;7.09;69.81;99222.00;6189731;23;45125;-87
2022/11/22 01:26:56;;;;;;;;;2.25;1.75;;;;;7.10;69.72;99218.47;6162346;23;45356;-86
2022/11/22 01:29:24;;;;;;;;;1.00;1.00;;;;;7.10;69.87;99213.25;6186521;23;45794;-86
2022/11/22 01:31:49;;;;;;;;;1.00;1.00;;;;;7.10;69.89;99211.50;6187869;23;45487;-87
2022/11/22 01:34:17;;;;;;;;;0.00;0.00;;;;;7.09;70.09;99206.31;6160366;23;45192;-86
2022/11/22 01:36:42;;;;;;;;;2.00;1.00;;;;;7.14;69.84;99207.09;6186388;23;45329;-87
2022/11/22 01:39:08;;;;;;;;;1.50;1.50;;;;;7.16;69.81;99219.25;6189168;23;45615;-86
2022/11/22 01:41:33;;;;;;;;;2.00;2.00;;;;;7.20;69.81;99218.31;6186534;23;46724;-86
2022/11/22 01:44:20;;;;;;;;;2.00;1.00;;;;;7.21;70.22;99213.94;6187790;23;45279;-86
2022/11/22 01:46:55;;;;;;;;;2.00;2.00;;;;;7.22;69.59;99215.69;6162535;23;45315;-86
2022/11/22 01:49:46;;;;;;;;;3.00;1.25;;;;;7.23;69.85;99206.94;6161418;23;45466;-85
2022/11/22 01:52:21;;;;;;;;;1.00;1.00;;;;;7.24;69.72;99206.94;6161246;23;47496;-87
2022/11/22 01:55:10;;;;;;;;;1.00;0.75;;;;;7.11;69.78;99178.34;6161443;23;45248;-87
2022/11/22 01:57:40;;;;;;;;;2.50;2.00;;;;;7.23;69.75;99189.50;6188592;23;45521;-87
2022/11/22 02:00:10;;;;;;;;;1.75;1.00;;;;;7.23;69.74;99197.34;6188068;23;45395;-86
2022/11/22 02:02:38;;;;;;;;;0.00;0.00;;;;;7.21;69.98;99212.19;6187839;23;45453;-87
2022/11/22 02:05:17;;;;;;;;;1.50;1.00;;;;;7.10;69.69;99180.09;6160863;23;45846;-86
2022/11/22 02:07:57;;;;;;;;;1.00;1.00;;;;;7.01;69.92;99168.03;6188158;23;45319;-86
2022/11/22 02:10:28;;;;;;;;;1.50;1.25;;;;;7.10;69.95;99185.31;6161808;23;45291;-86
2022/11/22 02:12:57;;;;;;;;;2.25;1.00;;;;;6.93;69.99;99182.97;6187957;23;46085;-87
2022/11/22 02:15:23;;;;;;;;;1.00;1.00;;;;;7.05;69.93;99203.69;6187006;23;45141;-87
2022/11/22 02:17:51;;;;;;;;;1.00;1.00;;;;;6.93;70.01;99176.88;6187152;23;45162;-84
2022/11/22 02:20:21;;;;;;;;;2.25;2.00;;;;;6.87;70.18;99161.25;6184684;23;45269;-84
2022/11/22 02:22:58;;;;;;;;;0.00;0.00;;;;;7.00;70.26;99195.09;6159726;23;47347;-84
2022/11/22 02:25:35;;;;;;;;;1.00;0.00;;;;;6.97;70.45;99186.38;6187014;23;45140;-84
2022/11/22 02:28:01;;;;;;;;;1.00;0.25;;;;;6.89;70.55;99181.25;6187080;23;45149;-84
2022/11/22 02:30:26;;;;;;;;;1.00;1.00;;;;;6.99;70.56;99195.09;6186925;23;45245;-84
2022/11/22 02:32:51;;;;;;;;;1.00;1.00;;;;;6.87;70.65;99164.75;6159779;23;47137;-85
2022/11/22 02:35:17;;;;;;;;;0.25;0.25;;;;;6.98;70.73;99194.22;6185528;23;45396;-84
2022/11/22 02:37:43;;;;;;;;;0.75;0.75;;;;;6.98;70.59;99188.13;6188344;23;45247;-85
2022/11/22 02:40:14;;;;;;;;;1.00;1.00;;;;;6.84;70.95;99163.03;6186285;23;44751;-84
2022/11/22 02:42:47;;;;;;;;;2.00;1.00;;;;;6.81;70.77;99157.81;6188404;23;45225;-85
2022/11/22 02:45:17;;;;;;;;;1.75;1.00;;;;;6.92;70.82;99186.44;6162014;23;45249;-86
2022/11/22 02:47:47;;;;;;;;;1.00;1.00;;;;;6.90;71.02;99167.31;6160704;23;45436;-86
2022/11/22 02:50:15;;;;;;;;;1.00;1.00;;;;;6.96;71.22;99166.34;6186797;23;45520;-87
2022/11/22 02:52:40;;;;;;;;;2.00;0.00;;;;;6.94;71.00;99170.75;6160060;23;47063;-86
2022/11/22 02:55:08;;;;;;;;;0.75;0.75;;;;;7.00;71.23;99158.44;6185507;23;45176;-85
2022/11/22 02:57:36;;;;;;;;;2.00;1.00;;;;;7.05;71.39;99159.22;6189589;23;45447;-87
2022/11/22 03:00:02;;;;;;;;;1.50;1.50;;;;;7.05;71.09;99153.13;6188417;23;45463;-85
2022/11/22 03:02:32;;;;;;;;;0.75;0.75;;;;;7.17;71.33;99171.28;6188630;23;45309;-86
2022/11/22 03:04:59;;;;;;;;;1.00;1.00;;;;;7.20;71.26;99163.38;6161062;23;45412;-86
2022/11/22 03:07:25;;;;;;;;;1.25;1.25;;;;;7.13;71.24;99134.69;6162033;23;45389;-86
2022/11/22 03:09:50;;;;;;;;;0.25;0.25;;;;;7.17;71.13;99134.63;6162603;23;45386;-87
2022/11/22 03:12:15;;;;;;;;;1.50;1.00;;;;;7.15;71.15;99125.94;6187174;23;46827;-86
2022/11/22 03:14:41;;;;;;;;;2.50;2.00;;;;;7.17;71.11;99123.31;6162225;23;45536;-87
2022/11/22 03:17:09;;;;;;;;;1.50;1.00;;;;;7.16;70.97;99119.81;6188078;23;45272;-86
2022/11/22 03:19:36;;;;;;;;;2.00;2.00;;;;;7.28;70.99;99134.47;6161762;23;45753;-86
2022/11/22 03:22:02;;;;;;;;;1.00;1.00;;;;;7.27;71.26;99137.94;6188767;23;46158;-86
2022/11/22 03:24:27;;;;;;;;;2.50;2.50;;;;;7.18;71.26;99120.66;6186718;23;45243;-86
2022/11/22 03:27:00;;;;;;;;;2.00;1.00;;;;;7.26;71.46;99131.84;6189155;23;45249;-86
2022/11/22 03:29:25;;;;;;;;;1.75;0.25;;;;;7.18;71.49;99117.16;6161948;23;45696;-86
2022/11/22 03:31:53;;;;;;;;;1.00;1.00;;;;;7.27;71.39;99127.47;6189565;23;45275;-85
2022/11/22 03:34:18;;;;;;;;;1.00;1.00;;;;;7.29;71.44;99130.94;6161453;23;45360;-85
2022/11/22 03:36:46;;;;;;;;;1.00;0.00;;;;;7.33;71.31;99137.88;6188936;23;45301;-85
2022/11/22 03:39:11;;;;;;;;;1.00;1.00;;;;;7.39;71.41;99129.91;6162032;23;45532;-85
2022/11/22 03:41:36;;;;;;;;;0.75;0.75;;;;;7.35;71.44;99129.97;6188795;23;46168;-85
2022/11/22 03:44:05;;;;;;;;;2.00;1.00;;;;;7.42;71.52;99135.09;6161980;23;45197;-86
2022/11/22 03:46:30;;;;;;;;;3.25;2.00;;;;;7.33;71.36;99124.78;6186440;23;45244;-86
2022/11/22 03:48:56;;;;;;;;;2.00;1.50;;;;;7.45;71.54;99127.16;6185853;23;45533;-85
2022/11/22 03:51:23;;;;;;;;;1.25;0.25;;;;;7.44;71.84;99132.44;6188032;23;46373;-86
2022/11/22 03:53:49;;;;;;;;;1.00;1.00;;;;;7.35;71.36;99115.16;6188432;23;45383;-86
2022/11/22 03:56:16;;;;;;;;;0.00;0.00;;;;;7.46;71.73;99134.16;6160769;23;45258;-87
2022/11/22 03:58:44;;;;;;;;;2.25;1.25;;;;;7.42;72.04;99123.75;6187900;23;45174;-86
2022/11/22 04:01:12;;;;;;;;;1.00;1.00;;;;;7.42;71.67;99127.22;6160917;23;47557;-86
2022/11/22 04:03:39;;;;;;;;;1.75;1.75;;;;;7.47;71.88;99135.00;6161396;23;45470;-86
2022/11/22 04:06:05;;;;;;;;;2.00;0.25;;;;;7.44;71.60;99122.84;6189129;23;45299;-86
2022/11/22 04:08:30;;;;;;;;;0.00;0.00;;;;;7.46;71.98;99114.97;6188561;23;45343;-85
2022/11/22 04:10:58;;;;;;;;;1.00;1.00;;;;;7.54;71.83;99134.03;6187510;23;46340;-86
2022/11/22 04:15:05;;;;;;;;;1.75;0.50;;;;;7.50;71.76;99130.56;6185933;23;46066;-85
2022/11/22 04:16:08;;;;;;;;;1.75;1.00;;;;;7.56;71.98;99119.13;6187120;23;45177;-85
2022/11/22 04:18:34;;;;;;;;;0.00;0.00;;;;;7.55;71.89;99116.56;6160700;23;45174;-86
2022/11/22 04:23:45;;;;;;;;;2.00;1.00;;;;;7.65;71.47;99120.75;6187571;23;45169;-86
2022/11/22 04:26:40;;;;;;;;;0.75;0.75;;;;;7.66;71.61;99110.22;6187056;23;45174;-85
2022/11/22 04:29:06;;;;;;;;;1.75;0.00;;;;;7.65;71.49;99094.56;6187283;23;45099;-85
2022/11/22 04:34:18;;;;;;;;;0.75;0.75;;;;;7.68;72.05;99091.88;6188213;23;45206;-85
2022/11/22 04:36:43;;;;;;;;;0.25;0.25;;;;;7.59;71.88;99077.19;6185601;23;45250;-85
2022/11/22 04:39:11;;;;;;;;;0.00;0.00;;;;;7.68;71.74;99082.25;6160380;23;45716;-86
2022/11/22 04:41:36;;;;;;;;;1.75;1.75;;;;;7.68;71.56;99065.69;6185701;23;46897;-85
2022/11/22 04:46:46;;;;;;;;;0.00;0.00;;;;;7.83;71.63;99090.69;6187150;23;45398;-86
2022/11/22 04:49:11;;;;;;;;;2.00;2.00;;;;;7.78;71.61;99075.09;6187350;23;45383;-85
2022/11/22 04:54:23;;;;;;;;;1.00;1.00;;;;;7.79;71.67;99081.19;6187546;23;45209;-86
2022/11/22 04:56:48;;;;;;;;;1.25;1.00;;;;;7.88;71.61;99091.47;6159079;23;45564;-86
2022/11/22 04:59:13;;;;;;;;;2.50;1.00;;;;;7.86;71.54;99091.53;6186717;23;45457;-86
2022/11/22 05:01:39;;;;;;;;;2.00;1.00;;;;;7.79;71.68;99075.94;6187964;23;45317;-85
2022/11/22 05:04:04;;;;;;;;;2.00;0.50;;;;;7.82;71.48;99063.66;6188474;23;45147;-86
2022/11/22 05:06:29;;;;;;;;;1.00;0.00;;;;;7.94;71.68;99094.00;6188374;23;46484;-86
2022/11/22 05:08:56;;;;;;;;;1.25;0.00;;;;;7.93;71.36;99100.97;6161195;23;45528;-86
2022/11/22 05:11:23;;;;;;;;;0.50;0.50;;;;;7.97;71.33;99095.69;6186310;23;48022;-86
2022/11/22 05:13:51;;;;;;;;;2.00;2.00;;;;;7.92;71.40;99096.63;6187439;23;45332;-86
2022/11/22 05:16:16;;;;;;;;;1.00;1.00;;;;;7.89;71.23;99078.34;6187888;23;45476;-86
2022/11/22 05:18:42;;;;;;;;;0.00;0.00;;;;;7.99;71.47;99089.50;6185569;23;45364;-87
2022/11/22 05:21:10;;;;;;;;;0.00;0.00;;;;;8.04;71.42;99103.38;6160535;23;46939;-86
2022/11/22 05:23:53;;;;;;;;;1.00;0.25;;;;;8.05;71.38;99110.38;6187985;23;45203;-86
2022/11/22 05:26:20;;;;;;;;;0.25;0.00;;;;;7.95;71.36;99106.19;6186327;23;45438;-86
2022/11/22 05:28:48;;;;;;;;;0.00;0.00;;;;;7.97;71.63;99112.28;6188613;23;45427;-86
2022/11/22 05:31:17;;;;;;;;;2.00;0.50;;;;;8.00;72.07;99112.22;6186091;23;47046;-87
2022/11/22 05:33:44;;;;;;;;;6.25;5.75;;;;;7.96;72.40;99102.66;6187739;23;45090;-86
2022/11/22 05:36:13;;;;;;;;;1.00;1.00;;;;;7.81;72.91;99082.03;6160021;23;45295;-85
2022/11/22 05:38:38;;;;;;;;;0.00;0.00;;;;;7.83;72.70;99090.69;6187621;23;45238;-85
2022/11/22 05:41:08;;;;;;;;;1.00;1.00;;;;;7.79;72.89;99096.91;6161027;23;47165;-86
2022/11/22 05:43:36;;;;;;;;;1.00;1.00;;;;;7.87;73.18;99123.81;6162230;23;45238;-86
2022/11/22 05:46:10;;;;;;;;;0.25;0.25;;;;;7.85;73.39;99109.88;6189902;23;45159;-85
2022/11/22 05:48:37;;;;;;;;;0.25;0.25;;;;;7.78;73.48;99111.78;6162373;23;45265;-86
2022/11/22 05:51:06;;;;;;;;;0.00;0.00;;;;;7.80;73.47;99124.81;6189289;23;45406;-85
2022/11/22 05:53:35;;;;;;;;;1.00;1.00;;;;;7.67;73.70;99105.84;6160937;23;45412;-86
2022/11/22 05:56:18;;;;;;;;;0.00;0.00;;;;;7.72;73.93;99125.84;6187151;23;45181;-83
2022/11/22 05:58:44;;;;;;;;;2.00;1.00;;;;;7.72;73.82;99131.09;6186914;23;45186;-83
2022/11/22 06:01:18;;;;;;;;;1.00;1.00;;;;;7.73;73.78;99122.31;6159813;23;45936;-83
2022/11/22 06:03:44;;;;;;;;;0.00;0.00;;;;;7.65;73.95;99105.03;6159917;23;45107;-84
2022/11/22 06:06:10;;;;;;;;;0.00;0.00;;;;;7.73;74.31;99116.22;6186768;23;45197;-83
2022/11/22 06:08:39;;;;;;;;;1.00;0.00;;;;;7.57;74.22;99080.75;6159972;23;45520;-82
2022/11/22 06:11:07;;;;;;;;;0.00;0.00;;;;;7.61;74.39;99080.63;6187041;23;45395;-84
2022/11/22 06:13:37;;;;;;;;;2.00;1.00;;;;;7.64;74.59;99084.94;6159351;23;45887;-83
2022/11/22 06:16:04;;;;;;;;;0.00;0.00;;;;;7.74;74.73;99107.47;6186493;23;45291;-82
2022/11/22 06:18:30;;;;;;;;;0.75;0.75;;;;;7.66;74.53;99089.28;6159222;23;45407;-84
2022/11/22 06:21:02;;;;;;;;;1.25;1.25;;;;;7.74;74.40;99112.69;6158802;23;46941;-85
2022/11/22 06:23:28;;;;;;;;;0.00;0.00;;;;;7.67;74.54;99103.22;6185976;23;45391;-84
2022/11/22 06:26:05;;;;;;;;;0.75;0.75;;;;;7.67;74.58;99098.88;6159779;23;45380;-85
2022/11/22 06:28:32;;;;;;;;;1.25;1.25;;;;;7.69;75.05;99101.44;6185949;23;45296;-83
2022/11/22 06:31:08;;;;;;;;;1.00;1.00;;;;;7.79;74.64;99117.88;6186824;23;45485;-82
2022/11/22 06:33:36;;;;;;;;;1.50;1.50;;;;;7.70;74.42;99096.19;6160386;23;45305;-85
2022/11/22 06:36:08;;;;;;;;;1.00;1.00;;;;;7.79;74.66;99120.47;6185768;23;45273;-90
2022/11/22 06:38:34;;;;;;;;;1.75;1.75;;;;;7.77;74.60;99099.53;6160847;23;45447;-86
2022/11/22 06:41:04;;;;;;;;;0.75;0.00;;;;;7.82;74.81;99104.69;6187730;23;46199;-83
2022/11/22 06:43:33;;;;;;;;;0.75;0.75;;;;;7.83;74.81;99102.06;6185262;23;45483;-83
2022/11/22 06:46:01;;;;;;;;;2.00;1.00;;;;;7.86;74.74;99104.63;6187669;23;45149;-83
2022/11/22 06:48:29;;;;;;;;;0.25;0.25;;;;;7.85;74.78;99107.25;6160448;23;45457;-85
2022/11/22 06:51:10;;;;;;;;;2.00;1.00;;;;;7.86;74.51;99109.00;6187895;23;46181;-84
2022/11/22 06:53:40;;;;;;;;;1.50;1.25;;;;;7.86;74.88;99096.75;6186071;23;45234;-84
2022/11/22 06:56:15;;;;;;;;;0.50;0.25;;;;;7.94;74.54;99123.69;6187418;23;45355;-83
2022/11/22 06:58:41;;;;;;;;;0.50;0.50;;;;;7.96;74.16;99121.00;6186385;23;45544;-83
2022/11/22 07:01:19;;;;;;;;;1.50;1.00;;;;;7.99;74.37;99122.72;6161111;23;46974;-84
2022/11/22 07:03:45;;;;;;;;;0.00;0.00;;;;;7.92;74.56;99114.97;6187070;23;45228;-84
2022/11/22 07:06:14;;;;;;;;;0.75;0.00;;;;;8.00;74.54;99132.31;6160373;23;45225;-84
2022/11/22 07:08:41;;;;;;;;;1.25;0.00;;;;;8.02;74.40;99133.13;6161039;23;45619;-84
2022/11/22 07:11:11;;;;;;;;;1.00;0.00;;;;;8.04;74.39;99132.19;6159676;23;47448;-84
2022/11/22 07:13:37;;;;;;;;;2.00;1.00;;;;;8.02;74.17;99133.13;6160252;23;45365;-86
2022/11/22 07:16:05;;;;;;;;;1.00;0.00;;;;;8.02;73.85;99118.28;6186627;23;45621;-85
2022/11/22 07:18:41;;;;;;;;;0.67;0.00;;;;;8.11;73.84;99130.34;6187583;23;45534;-89
2022/11/22 07:21:17;;;;;;;;;0.00;0.00;;;;;8.09;73.82;99119.03;6160960;23;47036;-88
2022/11/22 07:23:45;;;;;;;;;1.75;0.00;;;;;8.15;73.77;99126.75;6161072;23;45222;-90
2022/11/22 07:26:15;;;;;;;;;0.00;0.00;;;;;8.15;73.43;99126.75;6164207;23;45443;-86
2022/11/22 07:28:41;;;;;;;;;1.00;0.00;;;;;8.23;73.55;99153.66;6163427;23;45409;-87
2022/11/22 07:31:08;;;;;;;;;0.00;0.00;;;;;8.25;73.49;99165.00;6161990;23;46793;-90
2022/11/22 07:33:34;;;;;;;;;0.00;0.00;;;;;8.22;73.25;99157.19;6186770;23;45206;-89
2022/11/22 07:36:08;;;;;;;;;2.00;1.00;;;;;8.29;73.24;99168.44;6160475;23;45293;-86
2022/11/22 07:38:36;;;;;;;;;0.33;0.00;;;;;8.18;73.26;99142.44;6187949;23;45407;-85
2022/11/22 07:41:02;;;;;;;;;1.00;1.00;;;;;8.30;73.32;99168.41;6187255;23;46004;-86
2022/11/22 07:43:33;;;;;;;;;0.00;0.00;;;;;8.21;73.12;99154.63;6186949;23;45454;-85
2022/11/22 07:46:06;;;;;;;;;0.00;0.00;;;;;8.16;73.11;99157.31;6188058;23;45304;-90
2022/11/22 07:48:32;;;;;;;;;0.00;0.00;;;;;8.24;73.25;99167.66;6137342;23;45438;-86
2022/11/22 07:51:02;;;;;;;;;0.00;0.00;;;;;8.17;73.29;99165.16;6187190;23;46225;-85
2022/11/22 07:53:28;;;;;;;;;0.00;0.00;;;;;8.25;73.13;99175.47;6187694;23;45300;-86
2022/11/22 07:55:53;;;;;;;;;0.75;0.00;;;;;8.23;73.51;99169.41;6188241;23;45237;-86
2022/11/22 07:58:21;;;;;;;;;1.25;0.00;;;;;8.20;78.03;99179.09;6160009;23;45729;-85
2022/11/22 08:00:46;;;;;;;;;0.00;0.00;;;;;8.20;74.49;99172.09;6186677;23;45360;-86
2022/11/22 08:03:12;;;;;;;;;0.00;0.00;;;;;8.13;74.38;99163.50;6184831;23;45283;-86
2022/11/22 08:05:39;;;;;;;;;1.75;1.00;;;;;8.12;74.45;99164.38;6187441;23;45382;-86
2022/11/22 08:08:05;;;;;;;;;0.00;0.00;;;;;8.08;74.46;99161.84;6187546;23;45118;-86
2022/11/22 08:10:32;;;;;;;;;1.00;1.00;;;;;8.08;74.37;99162.72;6159813;23;46826;-86
2022/11/22 08:12:59;;;;;;;;;0.00;0.00;;;;;8.18;74.54;99184.38;6159622;23;45583;-87
2022/11/22 08:15:25;;;;;;;;;1.00;1.00;;;;;8.13;74.55;99173.13;6187246;23;45259;-85
2022/11/22 08:17:52;;;;;;;;;0.00;0.00;;;;;8.13;74.52;99175.75;6160372;23;45368;-86
2022/11/22 08:20:20;;;;;;;;;0.75;0.75;;;;;8.22;75.09;99187.81;6159993;23;48086;-85
2022/11/22 08:22:48;;;;;;;;;0.00;0.00;;;;;8.20;74.67;99190.44;6187361;23;45195;-86
2022/11/22 08:25:13;;;;;;;;;1.00;0.00;;;;;8.26;74.91;99176.34;6186958;23;45268;-86
2022/11/22 08:27:40;;;;;;;;;1.67;1.00;;;;;8.31;74.69;99185.88;6184367;23;45411;-86
2022/11/22 08:30:06;;;;;;;;;0.00;0.00;;;;;8.33;74.38;99186.69;6185147;23;47227;-85
2022/11/22 08:32:34;;;;;;;;;0.00;0.00;;;;;8.30;74.59;99199.84;6160681;23;45392;-85
2022/11/22 08:35:01;;;;;;;;;0.75;0.75;;;;;8.37;74.64;99198.84;6160580;23;45196;-86
2022/11/22 08:37:29;;;;;;;;;1.00;1.00;;;;;8.29;74.96;99192.91;6159792;23;45640;-86
2022/11/22 08:39:55;;;;;;;;;0.00;0.00;;;;;8.34;74.69;99203.28;6160320;23;47498;-86
2022/11/22 08:42:22;;;;;;;;;0.50;0.50;;;;;8.42;75.27;99196.19;6160037;23;45527;-84
2022/11/22 08:44:48;;;;;;;;;1.00;1.00;;;;;8.44;75.26;99201.38;6187084;23;45238;-84
2022/11/22 08:47:13;;;;;;;;;1.00;0.25;;;;;8.54;75.34;99209.03;6184237;23;45163;-84
2022/11/22 08:49:41;;;;;;;;;0.33;0.33;;;;;8.57;75.36;99202.84;6159528;23;47111;-82
2022/11/22 08:52:09;;;;;;;;;0.00;0.00;;;;;8.59;75.52;99195.81;6159384;23;45134;-82
2022/11/22 08:54:34;;;;;;;;;2.00;1.00;;;;;8.78;74.75;99204.16;6184825;23;45394;-83
2022/11/22 08:57:00;;;;;;;;;2.00;1.00;;;;;8.84;75.00;99204.03;6159203;23;45245;-83
2022/11/22 08:59:25;;;;;;;;;2.00;0.75;;;;;8.84;74.85;99206.66;6187352;23;45430;-85
2022/11/22 09:01:50;;;;;;;;;2.00;1.00;;;;;8.86;74.73;99196.13;6188089;23;45355;-85
2022/11/22 09:04:21;;;;;;;;;1.50;1.00;;;;;8.91;74.43;99208.25;6186401;23;45252;-83
2022/11/22 09:06:47;;;;;;;;;2.00;2.00;;;;;8.92;74.63;99215.22;6184677;23;45711;-84
2022/11/22 09:09:15;;;;;;;;;0.50;0.50;;;;;8.90;74.11;99209.16;6159174;23;45410;-83
2022/11/22 09:11:46;;;;;;;;;0.25;0.25;;;;;9.02;74.07;99202.78;6186802;23;45380;-84
2022/11/22 09:14:11;;;;;;;;;0.00;0.00;;;;;9.05;74.05;99192.19;6186539;23;45191;-84
2022/11/22 09:16:36;;;;;;;;;0.67;0.00;;;;;9.23;73.75;99206.69;6186353;23;45150;-81
2022/11/22 09:19:02;;;;;;;;;2.00;2.00;;;;;9.22;73.41;99195.31;6186600;23;45123;-86
2022/11/22 09:21:30;;;;;;;;;2.33;0.00;;;;;9.33;73.13;99212.56;6186972;23;45344;-85
2022/11/22 09:23:56;;;;;;;;;3.00;1.00;;;;;9.45;72.84;99197.38;6159507;23;45391;-87
2022/11/22 09:26:24;;;;;;;;;0.00;0.00;;;;;9.53;72.52;99220.00;6160011;23;45285;-85
2022/11/22 09:28:52;;;;;;;;;3.67;0.00;;;;;9.52;72.64;99205.13;6186451;23;46302;-86
2022/11/22 09:31:19;;;;;;;;;1.00;0.00;;;;;9.60;72.46;99217.19;6184340;23;45480;-85
2022/11/22 09:33:48;;;;;;;;;1.00;1.00;;;;;9.64;72.13;99218.81;6160731;23;45370;-84
2022/11/22 09:36:21;;;;;;;;;3.50;1.50;;;;;9.61;71.79;99207.53;6159783;23;45226;-86
2022/11/22 09:38:49;;;;;;;;;3.00;2.00;;;;;9.64;71.78;99233.72;6162189;23;46738;-86
2022/11/22 09:41:17;;;;;;;;;1.00;1.00;;;;;9.67;71.67;99224.00;6187088;23;45335;-86
2022/11/22 09:44:18;;;;;;;;;2.00;0.00;;;;;9.73;71.71;99217.75;6160347;23;45345;-86
2022/11/22 09:46:52;;;;;;;;;2.33;1.00;;;;;9.82;71.59;99222.75;6161010;23;45212;-85
2022/11/22 09:49:23;;;;;;;;;1.00;1.00;;;;;9.93;71.22;99218.09;6160555;23;47265;-85
2022/11/22 09:51:53;;;;;;;;;5.00;2.75;;;;;10.05;70.75;99216.91;6186529;23;45316;-83
2022/11/22 09:54:32;;;;;;;;;2.33;1.00;;;;;10.13;70.43;99214.94;6186251;23;45228;-82
2022/11/22 09:57:03;;;;;;;;;1.00;1.00;;;;;10.12;70.09;99199.19;6180079;23;45892;-84
2022/11/22 09:59:35;;;;;;;;;1.33;1.00;;;;;10.20;70.31;99205.13;6185548;23;45262;-83
2022/11/22 10:02:16;;;;;;;;;2.33;2.00;;;;;10.38;69.83;99209.91;6184453;23;45293;-87
2022/11/22 10:04:50;;;;;;;;;3.33;2.00;;;;;10.49;69.59;99211.38;6187910;23;45162;-86
2022/11/22 10:07:22;;;;;;;;;2.33;2.00;;;;;10.56;69.40;99205.91;6160569;23;45535;-86
2022/11/22 10:10:01;;;;;;;;;1.00;0.33;;;;;10.72;69.19;99227.38;6157153;23;48041;-85
2022/11/22 10:12:47;;;;;;;;;1.33;1.33;;;;;10.88;68.96;99213.75;6183983;23;45304;-86
2022/11/22 10:15:30;;;;;;;;;2.33;2.00;;;;;10.95;68.20;99217.94;6159235;23;45297;-86
2022/11/22 10:18:03;;;;;;;;;3.67;2.00;;;;;11.06;68.24;99225.50;6183540;23;45565;-86
2022/11/22 10:20:34;;;;;;;;;1.00;1.00;;;;;11.26;67.88;99242.44;6159817;23;48393;-85
2022/11/22 10:23:01;;;;;;;;;3.00;0.33;;;;;11.57;68.03;99227.44;6187073;23;45321;-86
2022/11/22 10:25:40;;;;;;;;;4.33;1.67;;;;;12.29;67.69;99239.06;6187717;23;45283;-88
2022/11/22 10:28:24;;;;;;;;;1.00;1.00;;;;;13.18;66.07;99230.53;6183031;23;45682;-84
2022/11/22 10:31:16;;;;;;;;;4.00;2.00;;;;;13.45;63.75;99223.34;6184801;23;46157;-84
2022/11/22 10:34:05;;;;;;;;;2.33;2.00;;;;;13.59;63.28;99229.84;6185261;23;45593;-85
2022/11/22 10:36:56;;;;;;;;;3.67;3.00;;;;;14.02;62.17;99231.56;6158904;23;45577;-85
2022/11/22 10:39:35;;;;;;;;;2.67;1.33;;;;;14.43;61.60;99236.88;6157829;23;45893;-85
2022/11/22 10:42:11;;;;;;;;;1.00;1.00;;;;;15.21;60.47;99251.06;6159510;23;47303;-86
2022/11/22 10:44:53;;;;;;;;;2.00;2.00;;;;;16.13;59.57;99261.69;6187417;23;45300;-85
2022/11/22 10:47:30;;;;;;;;;1.33;1.33;;;;;16.32;55.92;99235.91;6184953;23;45336;-86
2022/11/22 10:50:04;;;;;;;;;1.67;1.00;;;;;16.29;56.20;99242.22;6187280;23;45192;-84
2022/11/22 10:52:52;;;;;;;;;1.00;1.00;;;;;16.80;54.90;99233.44;6160003;23;47615;-86
2022/11/22 10:55:27;;;;;;;;;3.00;1.00;;;;;17.09;55.29;99230.06;6160119;23;45447;-84
2022/11/22 10:58:14;;;;;;;;;1.33;1.33;;;;;17.95;54.29;99248.34;6187080;23;45354;-85
2022/11/22 11:00:44;;;;;;;;;1.00;1.00;;;;;17.81;52.33;99242.00;6187611;23;45367;-85
2022/11/22 11:03:25;;;;;;;;;2.00;1.00;;;;;17.78;51.51;99263.44;6160015;23;48209;-86
2022/11/22 11:06:02;;;;;;;;;2.67;2.67;;;;;18.55;50.86;99261.63;6160469;23;45357;-84
2022/11/22 11:08:31;;;;;;;;;5.00;2.33;;;;;19.16;50.06;99251.66;6160873;23;45244;-85
2022/11/22 11:10:57;;;;;;;;;1.33;0.33;;;;;19.71;48.94;99245.50;6159893;23;45226;-86
2022/11/22 11:13:27;;;;;;;;;2.00;2.00;;;;;20.09;47.90;99238.56;6185338;23;47504;-86
2022/11/22 11:15:56;;;;;;;;;3.33;1.33;;;;;20.27;46.28;99240.00;6187618;23;45252;-92
2022/11/22 11:18:46;;;;;;;;;2.67;2.33;;;;;20.74;45.85;99251.91;6159967;23;45376;-88
2022/11/22 11:21:16;;;;;;;;;1.33;1.00;;;;;21.08;44.55;99252.22;6163483;23;44954;-91
2022/11/22 11:23:44;;;;;;;;;1.33;0.00;;;;;21.32;43.86;99249.63;6168157;23;47366;-92
2022/11/22 11:26:27;;;;;;;;;2.67;1.00;;;;;21.66;43.67;99237.34;6196089;23;44701;-94
2022/11/22 11:29:17;;;;;;;;;2.00;1.33;;;;;22.09;42.67;99260.06;6168764;23;45356;-93
2022/11/22 11:31:49;;;;;;;;;4.00;1.33;;;;;22.40;41.29;99262.19;6167193;23;45118;-89
2022/11/22 11:34:21;;;;;;;;;1.67;0.00;;;;;22.52;40.29;99259.50;6165979;22;48390;-90
2022/11/22 11:36:51;;;;;;;;;1.67;0.67;;;;;22.48;39.29;99236.56;6168756;23;45775;-90
2022/11/22 11:39:21;;;;;;;;;2.00;0.67;;;;;21.54;37.88;99262.31;6164467;23;45273;-89
2022/11/22 11:41:50;;;;;;;;;3.00;1.67;;;;;20.03;39.40;99253.19;6165073;23;45195;-93
2022/11/22 11:44:33;;;;;;;;;3.00;1.00;;;;;20.23;41.37;99239.34;6189294;23;47275;-90
2022/11/22 11:46:59;;;;;;;;;1.67;1.00;;;;;21.02;41.22;99240.13;6163619;23;45321;-90
2022/11/22 11:49:27;;;;;;;;;0.67;0.00;;;;;21.77;39.58;99244.56;6191549;23;45388;-92
2022/11/22 11:52:07;;;;;;;;;3.67;1.00;;;;;22.08;38.84;99244.94;6195345;23;44761;-93
2022/11/22 11:54:53;;;;;;;;;3.33;1.00;;;;;22.33;37.94;99252.88;6174311;23;47058;-93
2022/11/22 11:57:43;;;;;;;;;0.00;0.00;;;;;22.40;37.66;99250.56;6190085;23;45343;-88
2022/11/22 12:00:19;;;;;;;;;1.33;1.33;;;;;22.79;37.95;99259.19;6164168;23;45225;-89
2022/11/22 12:02:46;;;;;;;;;0.67;0.67;;;;;23.14;37.18;99260.94;6161662;23;45384;-90
2022/11/22 12:05:17;;;;;;;;;2.33;1.00;;;;;23.26;36.41;99266.22;6161019;23;47336;-86